This is the latest recevied weather packets stored in our database for station/object I5EKX-13. If no packets are shown the sender has not sent any weather packets the latest 10 day(s).
| Time | Temp. | Humidity | Pressure | Rain* | Wind** | Luminosity | Snow |
|---|---|---|---|---|---|---|---|
| 1788540633 | 28.33° C | 63% | 1013 hPa | - | - | - | - |
| 1788539429 | 28.89° C | 63% | 1013.1 hPa | - | - | - | - |
| 1788538235 | 28.89° C | 62% | 1013.4 hPa | - | - | - | - |
| 1788537021 | 29.44° C | 59% | 1013.5 hPa | - | - | - | - |
| 1788535817 | 29.44° C | 62% | 1013.5 hPa | - | - | - | - |
| 1788534613 | 30° C | 64% | 1013.4 hPa | - | - | - | - |
| 1788533409 | 30.56° C | 63% | 1013.5 hPa | - | - | - | - |
| 1788532205 | 31.11° C | 60% | 1013.6 hPa | - | - | - | - |
| 1788531001 | 31.11° C | 58% | 1013.7 hPa | - | - | - | - |
| 1788528593 | 32.78° C | 53% | 1013.9 hPa | - | - | - | - |
| 1788527389 | 33.89° C | 51% | 1013.8 hPa | - | - | - | - |
| 1788526185 | 34.44° C | 51% | 1013.9 hPa | - | - | - | - |
| 1788524998 | 33.89° C | 51% | 1014.1 hPa | - | - | - | - |
| 1788523777 | 35° C | 49% | 1014.1 hPa | - | - | - | - |
| 1788522573 | 35° C | 48% | 1014.1 hPa | - | - | - | - |
| 1788521369 | 34.44° C | 48% | 1014.2 hPa | - | - | - | - |
| 1788520165 | 34.44° C | 50% | 1014.5 hPa | - | - | - | - |
| 1788518961 | 33.89° C | 51% | 1014.3 hPa | - | - | - | - |
| 1788517757 | 35° C | 46% | 1014.3 hPa | - | - | - | - |
| 1788516553 | 34.44° C | 46% | 1014.5 hPa | - | - | - | - |
| 1788515349 | 34.44° C | 49% | 1014.6 hPa | - | - | - | - |
| 1788514145 | 33.89° C | 51% | 1014.7 hPa | - | - | - | - |
| 1788512941 | 33.33° C | 53% | 1014.7 hPa | - | - | - | - |
| 1788511756 | 32.78° C | 56% | 1014.4 hPa | - | - | - | - |
| 1788510533 | 31.11° C | 61% | 1014.5 hPa | - | - | - | - |
* Rain since midnight (hover to see other rain measurements)
** Current wind speed in m/s (hover to see current wind gust speed)